Flight Track Log - Related Links

Times and Time Zones

All times are in EST time to prevent confusion due to time zone crossing. See the OPT332 flight status page for this flight to view local times or setup timezone preferences in your user account.

Time Position Orientation Groundspeed Altitude Reporting Facility
EST Latitude Longitude Course Direction KTS MPH feet Rate Location/Type
Sun 09:05:55 AM 41.8569 -91.6706 216° Southwest 191 220 3,900  Level Chicago Center
Sun 09:06:56 AM 41.8147 -91.6858 195° South 178 205 8,400 3,526 Climbing Chicago Center
Sun 09:11:00 AM 41.3330 -92.3121 216° Southwest  Level Estimated
Sun 09:11:03 AM 41.7673 -91.7316 195° South 290 334 22,000  Level FlightAware ADS-B (LPVM)
Sun 09:12:48 AM 41.4950 -92.0155 218° Southwest 290 334 22,000  Level FlightAware ADS-B (LPVM)
Sun 09:13:19 AM 41.4619 -92.0497 218° Southwest 291 335 22,000  Level FlightAware ADS-B (LPVM)
Sun 09:14:05 AM 41.4244 -92.0886 218° Southwest 290 334 22,000  Level Chicago Center
Sun 09:15:06 AM 41.3619 -92.1539 218° Southwest 288 331 22,000  Level Chicago Center
Sun 09:16:08 AM 41.2997 -92.2172 217° Southwest 284 327 22,000  Level Chicago Center
Sun 09:17:09 AM 41.2297 -92.2869 217° Southwest 280 322 22,000  Level Chicago Center
Sun 09:18:10 AM 41.1694 -92.3497 218° Southwest 279 321 22,000  Level Chicago Center
Sun 09:19:12 AM 41.1081 -92.4122 217° Southwest 280 322 22,000  Level Chicago Center
Sun 09:20:13 AM 41.0481 -92.4747 218° Southwest 277 319 22,000  Level Chicago Center
Sun 09:21:14 AM 40.9747 -92.5461 216° Southwest 276 318 22,000  Level Chicago Center
Sun 09:22:16 AM 40.9153 -92.6061 217° Southwest 273 314 22,000  Level Chicago Center
Sun 09:23:17 AM 40.8561 -92.6658 217° Southwest 271 312 22,000  Level Chicago Center
Sun 09:24:19 AM 40.7969 -92.7269 218° Southwest 272 313 22,000  Level Chicago Center
Sun 09:25:20 AM 40.7372 -92.7858 217° Southwest 272 313 22,000  Level Chicago Center
Sun 09:26:21 AM 40.6786 -92.8442 217° Southwest 268 308 22,000  Level Chicago Center
Sun 09:27:23 AM 40.6081 -92.9164 218° Southwest 271 312 22,000  Level Chicago Center
Sun 09:28:17 AM 40.5586 -92.9639 216° Southwest 272 313 22,000  Level Kansas City Center
Sun 09:29:19 AM 40.4933 -93.0319 218° Southwest 270 311 22,000  Level Kansas City Center
Sun 09:30:20 AM 40.4419 -93.0822 217° Southwest 272 313 22,000  Level Kansas City Center
Sun 09:31:21 AM 40.3703 -93.1528 217° Southwest 272 313 22,000  Level Kansas City Center
Sun 09:32:22 AM 40.3117 -93.2119 218° Southwest 270 311 22,000  Level Kansas City Center
Sun 09:33:23 AM 40.2517 -93.2700 216° Southwest 271 312 22,000  Level Kansas City Center
Sun 09:34:24 AM 40.1919 -93.3289 217° Southwest 271 312 22,000  Level Kansas City Center
Sun 09:35:26 AM 40.1322 -93.3875 217° Southwest 270 311 22,000  Level Kansas City Center
Sun 09:36:27 AM 40.0731 -93.4461 217° Southwest 270 311 22,000 -393 Level Kansas City Center
Sun 09:37:28 AM 40.0142 -93.5028 216° Southwest 268 308 21,200 -1,131 Descending Kansas City Center
Sun 09:38:29 AM 39.9506 -93.5633 216° Southwest 243 280 19,700 -1,623 Descending Kansas City Center
Sun 09:39:30 AM 39.9003 -93.6136 218° Southwest 232 267 17,900 -1,463 Descending Kansas City Center
Sun 09:40:32 AM 39.8428 -93.6711 218° Southwest 253 291 16,700 -1,220 Descending Kansas City Center
Sun 09:41:33 AM 39.7833 -93.7278 216° Southwest 265 305 15,400 -1,279 Descending Kansas City Center
Sun 09:42:34 AM 39.7264 -93.7833 217° Southwest 264 304 14,100 -1,328 Descending Kansas City Center
Sun 09:43:35 AM 39.6767 -93.8619 231° Southwest 253 291 12,700 -1,317 Descending Kansas City Center
Sun 09:44:37 AM 39.6369 -93.9247 231° Southwest 238 274 11,400 -1,366 Descending Kansas City Center
Sun 09:45:38 AM 39.5892 -93.9964 229° Southwest 236 272 9,900 -1,328 Descending Kansas City Center
Sun 09:46:39 AM 39.5461 -94.0597 229° Southwest 242 278 8,700 -1,230 Descending Kansas City Center
Sun 09:47:40 AM 39.5014 -94.1208 227° Southwest 243 280 7,400 -1,512 Descending Kansas City Center
Sun 09:48:42 AM 39.4503 -94.1858 224° Southwest 230 265 5,600 -1,610 Descending Kansas City Center
Sun 09:49:43 AM 39.4097 -94.2375 225° Southwest 216 249 4,100 -787 Descending Kansas City Center
Sun 09:50:44 AM 39.3611 -94.2989 224° Southwest 218 251 4,000 -443 Descending Kansas City Center
Sun 09:51:45 AM 39.3169 -94.3536 224° Southwest 224 258 3,200 -488 Descending Kansas City Center
Sun 09:52:47 AM 39.2722 -94.4075 223° Southwest 231 266 3,000 -97 Descending Kansas City Center
Sun 09:53:49 AM 39.2094 -94.4597 213° Southwest 255 293 3,000  Level Kansas City Center
Sun 09:54:49 AM 39.1447 -94.4614 181° South 243 280 3,000  Level Kansas City Center
Sun 09:55:51 AM 39.1397 -94.5142 263° West 158 182 3,000 -390 Level Kansas City Center
Sun 09:56:52 AM 39.1369 -94.5739 267° West 149 171 2,200 -393 Descending Kansas City Center
Sun 09:57:53 AM 39.1350 -94.6161 267° West 127 146 2,200 -244 Level Kansas City Center
Sun 09:58:55 AM 39.0972 -94.6389 205° Southwest 144 166 1,700 -480 Descending Kansas City Center
Sun 09:59:58 AM 39.0922 -94.6042 101° East 126 145 1,200 -384 Descending Kansas City Center
Sun 10:01:00 AM 39.1258 -94.5906 17° North 116 133 900 -290 Descending Kansas City Center
Sun 10:02:00 AM 39.1229 -94.5928 180° South  Level Estimated

Login

Don't have an account? Register now (free) for customized features, flight alerts, and more!